Orbital elements of FREGAT DEB
| Launched | 17 July 2011 |
| Flight ended | – |
| Launch site | Tyuratam Missile and Space Center, Kazakhstan (Also known as Baikonur Cosmodrome) |
| Owner | Commonwealth of Independent States (former USSR) |
| NORAD ID | 45638 |
| Date fetched |
Epoch osculation |
Inc. [°] |
Ecc. | RA asc node [hr] |
Arg Peri. [°] |
Mean anom [°] |
Mean motion [rev/day] |
Abs. mag |
| Date fetched |
Epoch osculation |
Inc. [°] |
Ecc. | RA asc node [hr] |
Arg Peri. [°] |
Mean anom [°] |
Mean motion [rev/day] |
Abs. mag |
| 2026 May 05 17:57 | 2026 May 04 19:31:10 | 51.3935 | 0.11159 | 19.2064 | 66.7123 | 304.7183 | 13.16548 | – |
| 2026 May 04 17:57 | 2026 Apr 30 11:38:13 | 51.3937 | 0.11192 | 20.2133 | 55.2668 | 304.7183 | 13.16548 | – |
| 2026 May 03 17:57 | 2026 Apr 30 11:38:13 | 51.3937 | 0.11192 | 20.2133 | 55.2668 | 304.7183 | 13.16548 | – |
| 2026 May 02 17:57 | 2026 Apr 30 11:38:13 | 51.3937 | 0.11192 | 20.2133 | 55.2668 | 304.7183 | 13.16548 | – |
| 2026 May 01 17:56 | 2026 Apr 30 11:38:13 | 51.3937 | 0.11192 | 20.2133 | 55.2668 | 304.7183 | 13.16548 | – |
| 2026 Apr 30 17:56 | 2026 Apr 30 11:38:13 | 51.3937 | 0.11192 | 20.2133 | 55.2668 | 304.7183 | 13.16548 | – |
| 2026 Apr 29 17:57 | 2026 Apr 24 07:54:57 | 51.3956 | 0.11238 | 21.6429 | 39.0146 | 304.7183 | 13.16548 | – |
| 2026 Apr 28 17:56 | 2026 Apr 24 07:54:57 | 51.3956 | 0.11238 | 21.6429 | 39.0146 | 304.7183 | 13.16548 | – |
| 2026 Apr 27 17:58 | 2026 Apr 24 07:54:57 | 51.3956 | 0.11238 | 21.6429 | 39.0146 | 304.7183 | 13.16548 | – |
| 2026 Apr 26 17:58 | 2026 Apr 24 07:54:57 | 51.3956 | 0.11238 | 21.6429 | 39.0146 | 304.7183 | 13.16548 | – |
| 2026 Apr 25 17:58 | 2026 Apr 24 07:54:57 | 51.3956 | 0.11238 | 21.6429 | 39.0146 | 304.7183 | 13.16548 | – |
| 2026 Apr 24 17:59 | 2026 Apr 24 07:54:57 | 51.3956 | 0.11238 | 21.6429 | 39.0146 | 304.7183 | 13.16548 | – |
| 2026 Apr 23 17:57 | 2026 Apr 19 00:10:00 | 51.3964 | 0.11273 | 22.8774 | 24.9964 | 304.7183 | 13.16548 | – |
| 2026 Apr 22 17:57 | 2026 Apr 19 00:10:00 | 51.3964 | 0.11273 | 22.8774 | 24.9964 | 304.7183 | 13.16548 | – |
| 2026 Apr 21 17:57 | 2026 Apr 19 00:10:00 | 51.3964 | 0.11273 | 22.8774 | 24.9964 | 304.7183 | 13.16548 | – |
| 2026 Apr 20 17:57 | 2026 Apr 19 00:10:00 | 51.3964 | 0.11273 | 22.8774 | 24.9964 | 304.7183 | 13.16548 | – |
| 2026 Apr 19 17:58 | 2026 Apr 19 00:10:00 | 51.3964 | 0.11273 | 22.8774 | 24.9964 | 304.7183 | 13.16548 | – |
| 2026 Apr 18 17:56 | 2026 Apr 12 00:09:43 | 51.3993 | 0.11311 | 0.4989 | 6.5644 | 304.7183 | 13.16548 | – |
| 2026 Apr 16 17:57 | 2026 Apr 12 00:09:43 | 51.3993 | 0.11311 | 0.4989 | 6.5644 | 304.7183 | 13.16548 | – |
| 2026 Apr 14 17:57 | 2026 Apr 12 00:09:43 | 51.3993 | 0.11311 | 0.4989 | 6.5644 | 304.7183 | 13.16548 | – |
| 2026 Apr 13 17:57 | 2026 Apr 12 00:09:43 | 51.3993 | 0.11311 | 0.4989 | 6.5644 | 304.7183 | 13.16548 | – |
| 2026 Apr 12 17:57 | 2026 Apr 08 12:06:47 | 51.4002 | 0.11337 | 1.3091 | 357.3566 | 304.7183 | 13.16548 | – |
| 2026 Apr 11 17:57 | 2026 Apr 08 12:06:47 | 51.4002 | 0.11337 | 1.3091 | 357.3566 | 304.7183 | 13.16548 | – |
| 2026 Apr 10 17:58 | 2026 Apr 08 12:06:47 | 51.4002 | 0.11337 | 1.3091 | 357.3566 | 304.7183 | 13.16548 | – |
| 2026 Apr 09 18:01 | 2026 Apr 08 12:06:47 | 51.4002 | 0.11337 | 1.3091 | 357.3566 | 304.7183 | 13.16548 | – |
| 2026 Apr 08 17:57 | 2026 Apr 08 12:06:47 | 51.4002 | 0.11337 | 1.3091 | 357.3566 | 304.7183 | 13.16548 | – |